Time;durP1;ratioP1;P1;durP2;ratioP2;P2;SDS_P1;SDS_P2;PMS_P1;PMS_P2;Temp;Humidity;BMP_temperature;BMP_pressure;BME280_temperature;BME280_humidity;BME280_pressure;Samples;Min_cycle;Max_cycle;Signal;HPM_P1;HPM_P2
2021/12/11 00:01:44;;;;;;;105.10;34.50;;;;;;;-6.07;99.01;98299.86;103466;1313;24277;-30
2021/12/11 00:04:14;;;;;;;152.70;43.70;;;;;;;-6.05;98.96;98306.87;103741;1310;22446;-26
2021/12/11 00:06:45;;;;;;;114.40;39.70;;;;;;;-6.08;98.89;98306.71;103967;1310;22583;-30
2021/12/11 00:09:15;;;;;;;108.70;39.00;;;;;;;-6.06;98.99;98303.30;103871;1313;24261;-29
2021/12/11 00:11:42;;;;;;;114.80;39.40;;;;;;;-6.04;99.43;98298.63;104084;1313;22466;-26
2021/12/11 00:14:09;;;;;;;165.10;48.70;;;;;;;-6.02;99.32;98300.33;104172;1307;22734;-27
2021/12/11 00:16:35;;;;;;;122.60;37.60;;;;;;;-6.01;99.08;98304.81;104047;1314;24195;-25
2021/12/11 00:19:07;;;;;;;110.30;34.80;;;;;;;-6.03;99.21;98307.90;103886;1314;24174;-25
2021/12/11 00:21:33;;;;;;;93.00;35.20;;;;;;;-6.07;99.00;98316.44;104251;1314;22588;-30
2021/12/11 00:24:04;;;;;;;119.40;37.10;;;;;;;-6.11;98.73;98317.92;103918;1314;24371;-29
2021/12/11 00:26:33;;;;;;;170.10;46.80;;;;;;;-6.11;98.59;98318.65;104066;1304;24180;-25
2021/12/11 00:28:59;;;;;;;183.20;47.70;;;;;;;-6.06;99.52;98320.15;104184;1310;24118;-29
2021/12/11 00:31:27;;;;;;;111.10;35.90;;;;;;;-6.04;99.41;98325.09;103844;1314;24267;-26
2021/12/11 00:33:53;;;;;;;105.00;33.70;;;;;;;-5.99;99.83;98326.80;104034;1313;25294;-29
2021/12/11 00:36:21;;;;;;;83.00;27.60;;;;;;;-5.93;99.81;98332.25;104081;1314;24359;-29
2021/12/11 00:38:49;;;;;;;99.10;31.90;;;;;;;-5.86;99.93;98334.60;104114;1314;22664;-30
2021/12/11 00:41:16;;;;;;;89.20;31.20;;;;;;;-5.73;100.00;98342.35;103879;1314;22552;-26
2021/12/11 00:43:45;;;;;;;83.90;26.30;;;;;;;-5.64;100.00;98348.04;104039;1310;24183;-26
2021/12/11 00:46:14;;;;;;;77.80;29.20;;;;;;;-5.53;100.00;98357.87;104220;1314;23162;-26
2021/12/11 00:48:40;;;;;;;94.00;30.30;;;;;;;-5.49;100.00;98358.03;104064;1314;24161;-26
2021/12/11 00:51:11;;;;;;;75.30;27.90;;;;;;;-5.42;100.00;98361.52;103960;1316;22474;-25
2021/12/11 00:53:40;;;;;;;86.70;29.60;;;;;;;-5.34;99.76;98364.88;103928;1313;24310;-26
2021/12/11 00:56:09;;;;;;;93.60;29.00;;;;;;;-5.31;99.67;98366.19;104177;1304;22788;-25
2021/12/11 00:58:36;;;;;;;93.70;32.30;;;;;;;-5.32;99.36;98365.90;104064;1314;22478;-25
2021/12/11 01:01:04;;;;;;;94.50;30.10;;;;;;;-5.36;98.80;98367.32;103957;1310;24122;-30
2021/12/11 01:03:29;;;;;;;101.80;31.30;;;;;;;-5.42;98.46;98378.26;104131;1314;23150;-26
2021/12/11 01:05:57;;;;;;;60.50;24.40;;;;;;;-5.42;99.00;98376.98;104060;1310;22456;-26
2021/12/11 01:08:32;;;;;;;102.40;37.80;;;;;;;-5.40;99.25;98379.98;104040;1310;24159;-25
2021/12/11 01:11:05;;;;;;;225.10;80.00;;;;;;;-5.46;99.36;98381.86;104002;1299;22436;-29
2021/12/11 01:13:33;;;;;;;244.70;78.00;;;;;;;-5.45;98.93;98386.36;104246;1314;22543;-26
2021/12/11 01:16:05;;;;;;;278.30;115.70;;;;;;;-5.41;98.91;98390.52;104319;1313;23934;-29
2021/12/11 01:18:35;;;;;;;207.20;84.90;;;;;;;-5.33;99.09;98394.46;104159;1305;24168;-30
2021/12/11 01:26:13;;;;;;;175.10;74.70;;;;;;;-5.26;98.23;98407.86;104165;1315;22454;-30
2021/12/11 01:28:39;;;;;;;153.50;66.40;;;;;;;-5.28;98.36;98407.10;104015;1311;22475;-29
2021/12/11 01:31:08;;;;;;;115.30;49.80;;;;;;;-5.27;98.45;98408.96;104137;1310;22456;-29
2021/12/11 01:33:33;;;;;;;116.80;40.60;;;;;;;-5.23;98.50;98409.69;104169;1313;24179;-29
2021/12/11 01:35:59;;;;;;;113.90;36.20;;;;;;;-5.18;98.81;98413.52;103892;1314;22461;-29
2021/12/11 01:38:27;;;;;;;112.50;38.90;;;;;;;-5.13;98.73;98412.80;103862;1305;24122;-26
2021/12/11 01:40:58;;;;;;;117.60;46.70;;;;;;;-5.07;99.09;98412.80;104149;1313;24364;-30
2021/12/11 01:43:25;;;;;;;100.20;39.00;;;;;;;-5.02;99.15;98413.60;103989;1313;24158;-30
2021/12/11 01:45:52;;;;;;;138.30;43.40;;;;;;;-4.98;99.02;98416.95;104193;1315;22798;-26
2021/12/11 01:48:20;;;;;;;147.80;61.30;;;;;;;-5.00;98.62;98419.40;104188;1316;22443;-26
2021/12/11 01:50:56;;;;;;;127.90;57.50;;;;;;;-5.09;98.17;98419.98;104087;1313;22462;-26
2021/12/11 01:53:25;;;;;;;103.70;43.30;;;;;;;-5.19;98.35;98421.23;104124;1313;24367;-29
2021/12/11 01:55:54;;;;;;;122.60;52.50;;;;;;;-5.26;98.21;98423.41;104033;1314;24341;-29
2021/12/11 01:58:25;;;;;;;110.50;44.40;;;;;;;-5.31;98.15;98426.23;104070;1307;22460;-26
2021/12/11 02:00:54;;;;;;;173.50;79.50;;;;;;;-5.34;98.30;98431.13;104135;1310;24136;-26
2021/12/11 02:03:22;;;;;;;158.20;72.30;;;;;;;-5.35;98.32;98436.27;103786;1314;22675;-30
2021/12/11 02:05:48;;;;;;;127.40;49.60;;;;;;;-5.33;98.50;98436.30;103861;1313;24132;-30
2021/12/11 02:08:17;;;;;;;92.10;34.70;;;;;;;-5.26;98.78;98437.70;104013;1314;24133;-25
2021/12/11 02:10:47;;;;;;;95.40;31.80;;;;;;;-5.17;99.23;98433.29;104160;1314;25406;-29
2021/12/11 02:13:20;;;;;;;110.60;38.90;;;;;;;-5.16;99.11;98431.48;104241;1305;24274;-30
2021/12/11 02:15:50;;;;;;;91.20;40.10;;;;;;;-5.16;98.82;98434.46;103866;1311;22446;-30
2021/12/11 02:18:21;;;;;;;108.60;40.30;;;;;;;-5.06;99.21;98440.16;104119;1313;22586;-30
2021/12/11 02:20:53;;;;;;;124.10;42.50;;;;;;;-5.01;99.36;98441.98;103681;1310;23868;-29
2021/12/11 02:23:19;;;;;;;110.80;40.90;;;;;;;-5.01;98.63;98448.11;103859;1314;22833;-26
2021/12/11 02:25:47;;;;;;;103.90;37.80;;;;;;;-4.99;98.37;98443.75;103861;1313;22455;-30
2021/12/11 02:28:17;;;;;;;79.10;27.60;;;;;;;-4.93;98.34;98443.14;103828;1314;25274;-30
2021/12/11 02:30:47;;;;;;;73.30;26.60;;;;;;;-4.80;98.73;98448.88;104209;1314;24267;-26
2021/12/11 02:33:16;;;;;;;96.80;34.70;;;;;;;-4.69;98.75;98448.48;104159;1313;23772;-30
2021/12/11 02:35:51;;;;;;;73.40;27.60;;;;;;;-4.65;98.82;98452.23;104123;1314;22798;-30
2021/12/11 02:38:22;;;;;;;72.80;27.00;;;;;;;-4.62;98.63;98454.04;104045;1313;24217;-26
2021/12/11 02:40:55;;;;;;;54.50;20.70;;;;;;;-4.47;98.85;98455.27;104179;1313;24162;-26
2021/12/11 02:43:27;;;;;;;51.10;20.30;;;;;;;-4.32;99.49;98453.42;104416;1314;22464;-30
2021/12/11 02:46:00;;;;;;;38.40;18.00;;;;;;;-4.19;99.62;98458.59;104325;1304;22506;-26
2021/12/11 02:48:26;;;;;;;49.20;19.40;;;;;;;-4.00;99.81;98464.52;104189;1307;24169;-30
2021/12/11 02:50:59;;;;;;;53.90;18.40;;;;;;;-3.82;99.82;98463.52;103955;1306;22450;-30
2021/12/11 02:53:27;;;;;;;;;;;;;;;-3.58;99.89;98470.66;104228;1315;22426;-26
2021/12/11 02:55:58;;;;;;;55.70;20.00;;;;;;;-3.38;99.89;98470.17;104174;1310;22801;-30
2021/12/11 02:58:27;;;;;;;46.80;16.90;;;;;;;-3.14;99.79;98470.94;104075;1311;22810;-29
2021/12/11 03:00:58;;;;;;;39.60;15.80;;;;;;;-2.95;99.27;98467.11;104293;1315;22578;-26
2021/12/11 03:03:28;;;;;;;47.80;19.60;;;;;;;-2.87;99.32;98471.50;104142;1313;24262;-26
2021/12/11 03:06:03;;;;;;;53.30;17.40;;;;;;;-2.77;99.07;98474.73;103946;1310;22837;-26
2021/12/11 03:08:29;;;;;;;39.50;16.50;;;;;;;-2.72;98.82;98477.02;104322;1307;24050;-26
2021/12/11 03:10:58;;;;;;;56.10;19.70;;;;;;;-2.67;98.85;98476.80;104380;1314;23869;-29
2021/12/11 03:13:24;;;;;;;55.60;17.00;;;;;;;-2.63;98.76;98476.61;104130;1314;22600;-26
2021/12/11 03:15:50;;;;;;;36.90;15.40;;;;;;;-2.56;98.69;98480.91;104227;1314;22464;-29
2021/12/11 03:18:16;;;;;;;48.40;16.10;;;;;;;-2.47;98.73;98486.07;104313;1307;22627;-30
2021/12/11 03:20:42;;;;;;;36.30;16.90;;;;;;;-2.46;98.27;98483.95;104227;1307;24271;-26
2021/12/11 03:23:08;;;;;;;50.70;16.20;;;;;;;-2.50;97.91;98487.02;104119;1314;22435;-26
2021/12/11 03:25:34;;;;;;;42.80;15.70;;;;;;;-2.55;98.05;98486.02;104193;1310;24198;-30
2021/12/11 03:28:01;;;;;;;44.10;16.50;;;;;;;-2.63;97.86;98492.13;104100;1310;22462;-27
2021/12/11 03:30:30;;;;;;;31.60;13.30;;;;;;;-2.66;98.22;98491.88;104266;1314;24147;-30
2021/12/11 03:32:59;;;;;;;28.70;13.80;;;;;;;-2.71;97.70;98494.24;103962;1314;22439;-30
2021/12/11 03:35:25;;;;;;;33.20;14.20;;;;;;;-2.79;97.79;98494.44;104115;1304;24134;-26
2021/12/11 03:37:50;;;;;;;45.50;17.40;;;;;;;-2.85;98.04;98503.33;104272;1314;24252;-30
2021/12/11 03:40:17;;;;;;;49.90;14.90;;;;;;;-2.89;98.07;98500.45;104277;1305;24272;-30
2021/12/11 03:42:44;;;;;;;29.50;13.20;;;;;;;-2.95;98.03;98505.84;104102;1314;25902;-27
2021/12/11 03:45:14;;;;;;;36.20;14.40;;;;;;;-3.03;97.81;98508.08;104191;1310;22642;-26
2021/12/11 03:47:51;;;;;;;38.40;15.50;;;;;;;-3.02;97.64;98509.76;104184;1299;22464;-26
2021/12/11 03:50:18;;;;;;;33.10;16.80;;;;;;;-3.01;97.86;98508.98;104104;1314;22437;-26
2021/12/11 03:52:44;;;;;;;36.70;14.00;;;;;;;-2.97;97.89;98519.66;104215;1314;22579;-26
2021/12/11 03:55:11;;;;;;;28.40;13.20;;;;;;;-2.98;97.81;98518.95;104008;1314;22647;-26
2021/12/11 03:57:38;;;;;;;41.80;15.20;;;;;;;-2.95;97.87;98525.28;103316;1314;829352;-26
2021/12/11 04:00:09;;;;;;;37.30;14.40;;;;;;;-2.97;97.96;98527.75;103965;1314;24307;-26
2021/12/11 04:02:35;;;;;;;37.70;16.30;;;;;;;-2.92;98.12;98536.05;104248;1314;22600;-31
2021/12/11 04:05:01;;;;;;;39.80;16.10;;;;;;;-2.86;98.12;98537.10;104204;1314;24366;-26
2021/12/11 04:07:31;;;;;;;36.60;15.60;;;;;;;-2.74;97.78;98538.05;104141;1304;24144;-26
2021/12/11 04:09:57;;;;;;;40.30;16.30;;;;;;;-2.66;98.00;98541.51;104086;1304;22609;-30
2021/12/11 04:12:23;;;;;;;36.90;17.00;;;;;;;-2.59;98.06;98544.60;104271;1304;24257;-30
2021/12/11 04:14:50;;;;;;;50.60;16.90;;;;;;;-2.52;98.00;98543.24;104457;1310;24158;-30
2021/12/11 04:17:18;;;;;;;50.60;16.50;;;;;;;-2.47;98.23;98543.90;104150;1314;24159;-26
2021/12/11 04:19:44;;;;;;;31.00;13.70;;;;;;;-2.41;98.33;98550.86;104130;1314;24258;-30
2021/12/11 04:22:10;;;;;;;34.00;13.80;;;;;;;-2.44;98.05;98553.18;104281;1310;24102;-30
2021/12/11 04:24:42;;;;;;;50.90;18.80;;;;;;;-2.44;98.01;98561.80;104289;1314;24162;-30
2021/12/11 04:27:09;;;;;;;40.80;17.20;;;;;;;-2.45;97.61;98567.52;104351;1314;24139;-26
2021/12/11 04:29:35;;;;;;;30.70;13.90;;;;;;;-2.44;97.59;98570.55;104063;1310;22464;-26
2021/12/11 04:32:02;;;;;;;29.20;13.40;;;;;;;-2.43;97.48;98571.02;103975;1310;22649;-29
2021/12/11 04:34:28;;;;;;;48.30;15.20;;;;;;;-2.43;97.37;98571.38;104161;1314;24118;-30
2021/12/11 04:37:00;;;;;;;34.30;15.60;;;;;;;-2.39;97.31;98574.67;104353;1309;22569;-27
2021/12/11 04:39:28;;;;;;;31.30;13.90;;;;;;;-2.35;97.17;98581.23;104197;1315;22564;-30
2021/12/11 04:42:01;;;;;;;39.80;17.00;;;;;;;-2.26;97.61;98582.35;104091;1313;24134;-26
2021/12/11 04:44:35;;;;;;;50.40;17.30;;;;;;;-2.20;97.58;98588.58;104168;1314;23776;-26
2021/12/11 04:47:03;;;;;;;57.80;20.80;;;;;;;-2.22;96.60;98591.13;104322;1314;25022;-26
2021/12/11 04:49:39;;;;;;;1450.30;408.60;;;;;;;-2.19;96.68;98600.69;104132;1314;22461;-28
2021/12/11 04:52:15;;;;;;;864.20;301.50;;;;;;;-2.22;96.55;98604.58;104297;1314;22445;-30
2021/12/11 04:54:58;;;;;;;675.80;258.60;;;;;;;-2.29;96.15;98605.21;104213;1316;24212;-26
2021/12/11 05:10:06;;;;;;;67.20;24.20;;;;;;;-2.32;96.50;98621.45;104255;1315;22737;-30
2021/12/11 05:15:04;;;;;;;60.10;24.30;;;;;;;-2.15;97.37;98625.43;104211;1314;22464;-29
2021/12/11 05:17:30;;;;;;;59.70;24.80;;;;;;;-2.13;96.89;98627.48;104091;1314;22464;-26
2021/12/11 05:19:56;;;;;;;53.90;21.50;;;;;;;-2.11;96.96;98624.16;103899;1306;22463;-30
2021/12/11 05:22:22;;;;;;;65.70;25.00;;;;;;;-2.13;96.45;98628.90;103989;1311;22542;-26
2021/12/11 05:24:50;;;;;;;57.20;22.50;;;;;;;-2.12;96.80;98627.88;104257;1306;22591;-30
2021/12/11 05:27:17;;;;;;;70.50;24.80;;;;;;;-2.02;96.97;98629.49;104050;1304;22475;-26
2021/12/11 05:29:43;;;;;;;70.90;24.40;;;;;;;-1.98;97.21;98628.11;104146;1314;22832;-26
2021/12/11 05:32:11;;;;;;;64.60;28.40;;;;;;;-1.96;96.86;98629.48;104183;1306;22731;-26
2021/12/11 05:34:37;;;;;;;61.90;24.00;;;;;;;-1.95;96.78;98631.13;104102;1314;22740;-30
2021/12/11 05:37:03;;;;;;;51.40;22.80;;;;;;;-1.97;96.60;98633.63;104289;1314;22481;-31
2021/12/11 05:39:29;;;;;;;60.80;24.80;;;;;;;-1.99;96.25;98643.29;104239;1314;22463;-27
2021/12/11 05:41:55;;;;;;;55.30;22.90;;;;;;;-2.10;95.77;98642.80;104113;1314;26053;-30
2021/12/11 05:44:21;;;;;;;51.20;20.70;;;;;;;-2.13;96.06;98647.98;103910;1314;23849;-26
2021/12/11 05:46:47;;;;;;;55.00;21.40;;;;;;;-2.10;96.58;98650.19;104192;1310;24162;-29
2021/12/11 05:49:13;;;;;;;42.60;19.50;;;;;;;-2.06;96.53;98651.79;104185;1311;22525;-26
2021/12/11 05:51:39;;;;;;;71.00;24.10;;;;;;;-2.03;96.73;98655.56;104146;1314;22437;-26
2021/12/11 05:54:07;;;;;;;59.90;23.20;;;;;;;-2.02;96.85;98654.40;104282;1310;24306;-26
2021/12/11 05:56:36;;;;;;;63.00;23.50;;;;;;;-2.04;96.61;98655.11;104108;1316;22492;-30
2021/12/11 05:59:04;;;;;;;70.50;29.40;;;;;;;-2.10;96.34;98658.95;103988;1314;22475;-30
2021/12/11 06:01:34;;;;;;;82.40;29.70;;;;;;;-2.16;96.22;98665.85;104036;1314;24373;-30
2021/12/11 06:04:03;;;;;;;60.40;27.20;;;;;;;-2.22;96.64;98666.48;104148;1315;23788;-26
2021/12/11 06:06:29;;;;;;;77.10;32.90;;;;;;;-2.22;96.58;98671.73;104027;1314;24259;-30
2021/12/11 06:08:55;;;;;;;67.80;30.20;;;;;;;-2.25;96.55;98677.96;103973;1314;22440;-27
2021/12/11 06:11:21;;;;;;;72.70;30.10;;;;;;;-2.28;96.47;98687.92;103915;1307;24248;-27
2021/12/11 06:13:46;;;;;;;83.50;26.60;;;;;;;-2.32;96.53;98690.21;103898;1312;24166;-26
2021/12/11 06:16:14;;;;;;;66.30;22.50;;;;;;;-2.34;96.66;98694.91;104326;1314;22465;-30
2021/12/11 06:18:41;;;;;;;54.40;24.00;;;;;;;-2.33;96.82;98700.63;104262;1316;22447;-30
2021/12/11 06:21:07;;;;;;;52.60;24.10;;;;;;;-2.33;96.66;98707.11;104092;1309;24031;-26
2021/12/11 06:23:33;;;;;;;66.50;24.30;;;;;;;-2.37;96.59;98707.41;104105;1314;24184;-30
2021/12/11 06:25:58;;;;;;;57.00;22.60;;;;;;;-2.40;96.55;98710.45;103960;1310;22460;-26
2021/12/11 06:28:25;;;;;;;57.50;20.60;;;;;;;-2.42;96.88;98708.91;104162;1314;24158;-26
2021/12/11 06:30:54;;;;;;;60.00;23.60;;;;;;;-2.35;97.14;98712.53;104121;1314;22437;-30
2021/12/11 06:33:21;;;;;;;72.80;30.80;;;;;;;-2.28;97.32;98713.17;104035;1307;23825;-30
2021/12/11 06:35:52;;;;;;;98.50;42.00;;;;;;;-2.24;97.19;98718.41;104102;1313;24150;-26
2021/12/11 06:38:20;;;;;;;72.00;29.20;;;;;;;-2.21;97.10;98723.10;103956;1314;24146;-30
2021/12/11 06:40:46;;;;;;;56.30;24.10;;;;;;;-2.16;97.23;98729.84;104426;1313;24178;-27
2021/12/11 06:43:11;;;;;;;57.30;22.00;;;;;;;-2.12;97.11;98734.38;104005;1314;24149;-30
2021/12/11 06:45:37;;;;;;;61.80;24.20;;;;;;;-2.10;97.11;98737.36;104149;1314;24146;-30
2021/12/11 06:48:04;;;;;;;57.80;23.50;;;;;;;-2.09;97.13;98737.82;104132;1304;24162;-26
2021/12/11 06:50:30;;;;;;;48.50;21.40;;;;;;;-2.08;97.26;98740.35;104114;1314;22730;-30
2021/12/11 06:52:56;;;;;;;57.50;27.00;;;;;;;-2.05;97.12;98737.11;104084;1310;22441;-28
2021/12/11 06:55:22;;;;;;;63.10;27.00;;;;;;;-2.08;96.80;98742.59;103670;1314;22586;-26
2021/12/11 06:57:48;;;;;;;60.90;27.70;;;;;;;-2.08;97.06;98742.47;103945;1314;24146;-30
2021/12/11 07:00:15;;;;;;;65.90;28.60;;;;;;;-2.06;97.16;98742.83;104102;1314;24145;-26
2021/12/11 07:02:41;;;;;;;62.50;30.40;;;;;;;-2.03;96.87;98749.62;104117;1303;24147;-26
2021/12/11 07:05:08;;;;;;;67.60;29.30;;;;;;;-2.04;97.04;98749.11;104208;1315;23203;-26
2021/12/11 07:07:35;;;;;;;57.80;25.80;;;;;;;-1.99;97.02;98749.36;104149;1310;22937;-29
2021/12/11 07:10:02;;;;;;;105.00;36.40;;;;;;;-1.92;97.18;98746.86;104001;1314;22515;-30
2021/12/11 07:12:28;;;;;;;246.60;72.20;;;;;;;-1.84;97.38;98750.23;103963;1315;24107;-30
2021/12/11 07:14:54;;;;;;;249.40;74.90;;;;;;;-1.75;97.27;98754.36;104035;1316;22458;-30
2021/12/11 07:17:20;;;;;;;232.90;68.60;;;;;;;-1.72;97.30;98759.03;104107;1305;22473;-26
2021/12/11 07:19:49;;;;;;;122.40;49.00;;;;;;;-1.68;97.01;98765.30;104241;1314;24164;-26
2021/12/11 07:22:15;;;;;;;131.10;61.90;;;;;;;-1.63;96.99;98770.48;104074;1311;24211;-29
2021/12/11 07:24:53;;;;;;;120.20;45.60;;;;;;;-1.68;96.68;98775.81;104138;1311;24173;-30
2021/12/11 07:27:19;;;;;;;106.40;44.70;;;;;;;-1.67;96.66;98779.77;103871;1312;24296;-30
2021/12/11 07:29:45;;;;;;;98.10;41.80;;;;;;;-1.61;97.11;98781.91;104087;1306;22518;-30
2021/12/11 07:32:11;;;;;;;102.70;39.90;;;;;;;-1.55;96.89;98780.30;104193;1314;24162;-30
2021/12/11 07:34:38;;;;;;;71.80;29.50;;;;;;;-1.52;96.80;98784.60;104034;1314;22560;-26
2021/12/11 07:37:04;;;;;;;98.20;39.50;;;;;;;-1.46;96.80;98783.70;104118;1316;24148;-26
2021/12/11 07:39:30;;;;;;;129.10;44.30;;;;;;;-1.42;97.02;98790.55;104101;1314;22465;-26
2021/12/11 07:41:56;;;;;;;119.70;46.80;;;;;;;-1.33;97.21;98801.36;104072;1314;24234;-26
2021/12/11 07:44:22;;;;;;;133.20;48.40;;;;;;;-1.24;97.06;98806.52;104057;1314;22581;-26
2021/12/11 07:46:48;;;;;;;108.50;36.40;;;;;;;-1.18;97.16;98807.38;104077;1316;24192;-30
2021/12/11 07:49:15;;;;;;;80.20;32.70;;;;;;;-1.05;97.13;98809.02;104326;1315;24256;-26
2021/12/11 07:51:41;;;;;;;101.80;34.80;;;;;;;-0.93;96.96;98813.98;104110;1307;22485;-30
2021/12/11 07:54:07;;;;;;;265.70;64.40;;;;;;;-0.81;97.01;98815.90;103847;1314;24235;-30
2021/12/11 07:56:33;;;;;;;302.30;74.70;;;;;;;-0.74;96.38;98817.38;104076;1313;22464;-30
2021/12/11 07:59:00;;;;;;;319.80;69.50;;;;;;;-0.68;95.99;98825.98;103994;1313;24271;-29
2021/12/11 08:01:27;;;;;;;170.30;49.70;;;;;;;-0.67;95.79;98830.21;104171;1315;22663;-26
2021/12/11 08:03:57;;;;;;;83.10;29.20;;;;;;;-0.63;95.59;98830.75;104366;1316;22449;-26
2021/12/11 08:06:23;;;;;;;75.30;28.20;;;;;;;-0.59;95.40;98834.10;103827;1314;22779;-30
2021/12/11 08:08:49;;;;;;;61.40;24.00;;;;;;;-0.50;95.94;98836.23;104088;1305;22450;-26
2021/12/11 08:11:17;;;;;;;70.20;27.00;;;;;;;-0.42;95.73;98849.28;104033;1314;22457;-30
2021/12/11 08:13:44;;;;;;;57.30;22.90;;;;;;;-0.34;96.15;98860.99;104244;1315;24221;-30
2021/12/11 08:16:10;;;;;;;72.60;23.70;;;;;;;-0.23;96.02;98865.09;103838;1316;24351;-30
2021/12/11 08:18:36;;;;;;;64.90;26.20;;;;;;;-0.18;95.32;98869.52;103999;1313;22587;-29
2021/12/11 08:21:02;;;;;;;51.00;22.20;;;;;;;-0.08;95.12;98866.88;103865;1316;22916;-30
2021/12/11 08:23:29;;;;;;;63.50;29.80;;;;;;;-0.04;94.02;98873.53;104195;1315;24191;-29
2021/12/11 08:25:55;;;;;;;80.90;35.90;;;;;;;-0.08;93.34;98881.23;104133;1314;24173;-30
2021/12/11 08:28:24;;;;;;;109.70;42.00;;;;;;;-0.08;93.76;98885.34;104276;1315;22820;-26
2021/12/11 08:30:52;;;;;;;125.10;54.80;;;;;;;-0.04;94.12;98894.42;103946;1314;24262;-26
2021/12/11 08:33:18;;;;;;;100.40;41.90;;;;;;;-0.00;94.04;98895.73;104370;1316;22484;-26
2021/12/11 08:35:43;;;;;;;160.10;55.90;;;;;;;0.04;94.07;98896.52;104076;1313;22547;-26
2021/12/11 08:38:09;;;;;;;150.30;56.20;;;;;;;0.08;93.42;98899.86;104015;1316;22478;-30
2021/12/11 08:40:38;;;;;;;79.50;35.10;;;;;;;0.17;93.84;98904.80;103934;1311;24129;-30
2021/12/11 08:43:05;;;;;;;74.00;34.70;;;;;;;0.23;94.19;98905.54;104106;1311;22446;-26
2021/12/11 08:45:45;;;;;;;79.60;37.40;;;;;;;0.24;93.99;98913.18;104110;1312;24251;-26
2021/12/11 08:48:14;;;;;;;64.70;30.50;;;;;;;0.28;94.04;98915.83;104279;1314;24241;-30
2021/12/11 08:50:40;;;;;;;51.60;25.10;;;;;;;0.30;93.26;98924.57;104258;1306;22534;-26
2021/12/11 08:53:06;;;;;;;62.80;26.70;;;;;;;0.40;93.62;98926.66;104236;1316;24100;-26
2021/12/11 08:55:36;;;;;;;71.50;28.00;;;;;;;0.42;93.40;98927.31;104335;1306;24265;-30
2021/12/11 08:58:02;;;;;;;62.90;28.00;;;;;;;0.48;93.81;98929.25;104335;1315;22815;-26
2021/12/11 09:00:28;;;;;;;73.50;29.60;;;;;;;0.55;93.32;98933.77;103922;1305;22461;-26
2021/12/11 09:02:57;;;;;;;68.50;28.90;;;;;;;0.60;93.24;98939.39;103892;1311;24247;-30
2021/12/11 09:05:26;;;;;;;40.80;19.30;;;;;;;0.72;93.87;98941.79;103972;1314;22465;-30
2021/12/11 09:07:57;;;;;;;44.00;20.30;;;;;;;0.86;93.54;98946.11;104046;1313;25906;-30
2021/12/11 09:10:30;;;;;;;48.70;22.10;;;;;;;0.88;92.27;98951.89;103986;1314;24240;-26
2021/12/11 09:13:00;;;;;;;61.80;23.60;;;;;;;0.74;93.04;98952.77;104165;1305;23781;-30
2021/12/11 09:15:33;;;;;;;42.10;21.90;;;;;;;0.69;92.84;98961.45;104271;1316;22461;-26
2021/12/11 09:18:02;;;;;;;46.10;21.00;;;;;;;0.67;92.76;98962.90;104138;1315;23186;-30
2021/12/11 09:20:37;;;;;;;47.00;21.80;;;;;;;0.72;92.61;98964.72;104110;1306;22718;-30
2021/12/11 09:23:08;;;;;;;54.80;21.90;;;;;;;0.68;91.47;98967.02;104058;1315;22703;-26
2021/12/11 09:25:41;;;;;;;47.40;23.10;;;;;;;0.68;91.53;98969.30;103868;1314;24131;-26
2021/12/11 09:28:12;;;;;;;50.10;21.20;;;;;;;0.72;91.19;98977.75;104126;1313;24144;-30
2021/12/11 09:30:45;;;;;;;52.90;22.00;;;;;;;0.80;91.86;98982.30;104290;1311;22776;-25
2021/12/11 09:33:18;;;;;;;54.60;21.50;;;;;;;0.86;91.19;98986.59;104032;1314;22482;-26
2021/12/11 09:35:48;;;;;;;56.50;23.40;;;;;;;0.96;91.53;98986.04;103866;1311;22874;-26
2021/12/11 09:38:20;;;;;;;68.50;28.30;;;;;;;0.93;90.47;98986.68;104100;1307;24144;-26
2021/12/11 09:40:54;;;;;;;68.60;27.40;;;;;;;0.98;91.45;98993.28;103829;1315;23835;-26
2021/12/11 09:43:25;;;;;;;;;;;;;;;1.05;90.92;98997.71;103702;1316;23889;-26
2021/12/11 09:45:51;;;;;;;142.50;52.00;;;;;;;1.08;90.62;99001.48;103925;1306;22440;-30
2021/12/11 09:48:17;;;;;;;97.00;41.80;;;;;;;1.16;90.72;99002.98;103960;1316;24148;-26
2021/12/11 09:50:52;;;;;;;146.30;55.50;;;;;;;1.27;90.93;99006.35;104088;1313;24144;-31
2021/12/11 09:53:19;;;;;;;221.80;81.70;;;;;;;1.26;90.10;99015.48;104149;1306;24121;-26
2021/12/11 09:55:46;;;;;;;333.70;146.00;;;;;;;1.29;90.35;99017.77;103779;1313;22439;-26
2021/12/11 09:58:15;;;;;;;244.90;98.40;;;;;;;1.42;90.44;99024.55;103810;1314;25275;-26
2021/12/11 10:00:44;;;;;;;293.70;127.30;;;;;;;1.52;90.75;99021.59;104144;1313;22448;-30
2021/12/11 10:03:11;;;;;;;130.20;55.30;;;;;;;1.56;89.68;99017.20;104099;1314;24121;-25
2021/12/11 10:05:44;;;;;;;80.60;35.00;;;;;;;1.65;90.98;99021.44;104035;1313;24098;-30
2021/12/11 10:10:44;;;;;;;54.70;23.70;;;;;;;1.60;90.08;99026.28;103857;1314;22711;-30
2021/12/11 10:13:10;;;;;;;47.70;20.90;;;;;;;1.70;89.24;99030.95;103986;1313;22704;-25
2021/12/11 10:15:39;;;;;;;58.60;22.50;;;;;;;1.72;90.10;99036.07;103951;1313;22522;-30
2021/12/11 10:18:09;;;;;;;44.30;18.30;;;;;;;1.63;87.66;99043.66;103793;1313;22475;-26
2021/12/11 10:20:39;;;;;;;50.70;18.40;;;;;;;1.46;84.92;99048.18;103961;1310;24214;-26
2021/12/11 10:23:07;;;;;;;51.50;21.00;;;;;;;1.54;87.78;99044.54;103891;1314;24227;-30
2021/12/11 10:25:34;;;;;;;45.40;20.60;;;;;;;1.74;88.86;99046.48;104124;1305;24202;-30
2021/12/11 10:28:01;;;;;;;50.50;20.20;;;;;;;1.62;88.64;99049.20;103975;1314;22645;-30
2021/12/11 10:30:27;;;;;;;56.00;23.10;;;;;;;1.68;89.34;99056.19;104097;1316;22812;-26
2021/12/11 10:32:53;;;;;;;76.10;28.20;;;;;;;1.78;89.95;99061.20;104023;1314;24144;-30
2021/12/11 10:35:25;;;;;;;97.20;32.00;;;;;;;1.89;90.18;99066.77;104268;1313;23338;-30
2021/12/11 10:37:51;;;;;;;66.20;32.10;;;;;;;1.94;89.86;99068.78;104096;1314;22464;-30
2021/12/11 10:40:22;;;;;;;149.80;57.40;;;;;;;1.95;89.77;99069.83;103907;1315;24223;-30
2021/12/11 10:42:53;;;;;;;77.30;29.30;;;;;;;2.10;90.21;99075.80;104079;1314;22465;-30
2021/12/11 10:45:19;;;;;;;62.30;21.90;;;;;;;2.10;89.99;99082.32;103878;1314;24158;-26
2021/12/11 10:47:48;;;;;;;98.60;30.40;;;;;;;2.03;89.87;99082.65;104186;1314;22451;-26
2021/12/11 10:50:23;;;;;;;172.50;43.70;;;;;;;2.01;90.02;99076.70;103839;1314;22498;-26
2021/12/11 10:52:49;;;;;;;120.60;28.90;;;;;;;2.01;89.82;99075.79;104160;1314;24158;-30
2021/12/11 10:55:17;;;;;;;78.70;22.60;;;;;;;2.04;89.89;99080.77;104054;1310;24159;-26
2021/12/11 10:57:43;;;;;;;233.00;78.40;;;;;;;2.11;89.75;99085.38;104275;1313;24146;-26
2021/12/11 11:00:17;;;;;;;279.00;126.90;;;;;;;2.17;89.08;99094.38;104230;1314;22829;-26
2021/12/11 11:02:43;;;;;;;144.30;46.70;;;;;;;2.23;89.04;99099.96;104210;1314;22714;-26
2021/12/11 11:05:13;;;;;;;245.80;60.40;;;;;;;2.25;89.10;99101.38;104070;1316;24114;-26
2021/12/11 11:07:39;;;;;;;232.00;66.10;;;;;;;2.29;89.32;99102.48;104092;1314;23839;-26
2021/12/11 11:10:08;;;;;;;103.40;36.80;;;;;;;2.33;88.92;99094.87;104098;1308;24269;-26
2021/12/11 11:12:35;;;;;;;64.90;26.90;;;;;;;2.37;88.96;99093.41;103943;1315;23840;-31
2021/12/11 11:15:01;;;;;;;55.30;24.30;;;;;;;2.35;89.18;99099.68;104092;1307;24239;-26
2021/12/11 11:17:29;;;;;;;140.90;53.70;;;;;;;2.34;89.24;99104.02;103457;1310;24342;-29
2021/12/11 11:19:55;;;;;;;69.20;36.50;;;;;;;2.31;88.99;99109.16;103799;1316;24150;-27
2021/12/11 11:22:25;;;;;;;88.10;38.60;;;;;;;2.19;88.13;99112.72;103732;1304;24292;-30
2021/12/11 11:24:56;;;;;;;74.80;31.90;;;;;;;2.21;88.08;99116.05;103663;1313;24113;-30
2021/12/11 11:27:22;;;;;;;43.90;19.70;;;;;;;2.23;88.45;99117.23;103677;1313;24145;-26
2021/12/11 11:29:48;;;;;;;67.20;22.80;;;;;;;2.15;87.57;99116.95;103713;1305;24194;-27
2021/12/11 11:32:17;;;;;;;33.80;17.90;;;;;;;2.02;87.78;99120.54;103546;1314;24215;-27
2021/12/11 11:34:44;;;;;;;35.90;17.50;;;;;;;2.02;87.47;99124.23;103697;1304;24118;-30
2021/12/11 11:37:13;;;;;;;42.50;21.70;;;;;;;1.96;86.67;99131.36;103716;1310;24291;-26